createdAt,value
2024-04-09T00:01:39.752Z,28.05
2024-04-09T00:04:06.980Z,26.05
2024-04-09T00:06:34.323Z,25.65
2024-04-09T00:09:01.859Z,27.20
2024-04-09T00:11:29.179Z,25.73
2024-04-09T00:14:00.084Z,26.63
2024-04-09T00:16:30.156Z,26.92
2024-04-09T00:19:00.180Z,27.50
2024-04-09T00:21:31.126Z,26.73
2024-04-09T00:24:00.024Z,27.85
2024-04-09T00:26:30.656Z,32.90
2024-04-09T00:28:57.801Z,27.67
2024-04-09T00:31:28.621Z,30.70
2024-04-09T00:33:56.833Z,28.77
2024-04-09T00:36:24.172Z,29.33
2024-04-09T00:38:51.689Z,26.83
2024-04-09T00:41:18.825Z,30.25
2024-04-09T00:43:47.013Z,26.52
2024-04-09T00:46:17.424Z,26.15
2024-04-09T00:48:45.714Z,25.27
2024-04-09T00:51:16.363Z,23.35
2024-04-09T00:53:45.505Z,25.57
2024-04-09T00:56:13.548Z,26.27
2024-04-09T00:58:41.566Z,24.35
2024-04-09T01:01:14.741Z,23.83
2024-04-09T01:03:42.897Z,22.50
2024-04-09T01:06:10.932Z,22.25
2024-04-09T01:08:38.703Z,22.65
2024-04-09T01:11:06.427Z,21.10
2024-04-09T01:13:33.667Z,21.05
2024-04-09T01:16:02.550Z,25.98
2024-04-09T01:18:29.793Z,24.55
2024-04-09T01:20:57.271Z,20.90
2024-04-09T01:23:24.389Z,22.75
2024-04-09T01:25:51.784Z,21.08
2024-04-09T01:28:19.984Z,19.23
2024-04-09T01:30:48.015Z,22.00
2024-04-09T01:33:15.308Z,18.67
2024-04-09T01:35:42.441Z,23.35
2024-04-09T01:38:09.921Z,19.20
2024-04-09T01:40:36.985Z,18.40
2024-04-09T01:43:04.330Z,18.33
2024-04-09T01:45:31.644Z,16.73
2024-04-09T01:47:59.409Z,16.08
2024-04-09T01:50:27.774Z,17.88
2024-04-09T01:52:55.439Z,19.40
2024-04-09T01:55:24.094Z,16.85
2024-04-09T01:57:51.161Z,16.38
2024-04-09T02:00:26.046Z,16.23
2024-04-09T02:02:54.323Z,20.08
2024-04-09T02:05:22.176Z,23.35
2024-04-09T02:07:49.907Z,17.40
2024-04-09T02:10:17.130Z,17.83
2024-04-09T02:12:44.569Z,16.30
2024-04-09T02:15:14.553Z,15.82
2024-04-09T02:17:42.338Z,21.38
2024-04-09T02:20:11.756Z,24.33
2024-04-09T02:22:39.193Z,20.20
2024-04-09T02:25:06.761Z,16.27
2024-04-09T02:27:34.499Z,16.77
2024-04-09T02:30:04.368Z,17.73
2024-04-09T02:32:33.170Z,18.13
2024-04-09T02:35:00.433Z,18.40
2024-04-09T02:37:27.490Z,13.73
2024-04-09T02:39:54.544Z,17.00
2024-04-09T02:42:22.069Z,13.75
2024-04-09T02:44:49.278Z,15.93
2024-04-09T02:47:16.586Z,14.00
2024-04-09T02:49:45.534Z,19.63
2024-04-09T02:52:12.965Z,15.48
2024-04-09T02:54:42.939Z,17.88
2024-04-09T02:57:11.856Z,15.93
2024-04-09T02:59:40.715Z,18.27
2024-04-09T03:02:08.406Z,16.25
2024-04-09T03:04:35.942Z,15.02
2024-04-09T03:07:05.151Z,19.52
2024-04-09T03:09:33.159Z,13.10
2024-04-09T03:12:02.293Z,18.02
2024-04-09T03:14:30.625Z,15.50
2024-04-09T03:16:58.008Z,17.17
2024-04-09T03:19:25.234Z,19.40
2024-04-09T03:21:52.416Z,16.83
2024-04-09T03:24:19.588Z,21.75
2024-04-09T03:26:46.810Z,20.23
2024-04-09T03:29:14.434Z,18.48
2024-04-09T03:31:41.791Z,17.85
2024-04-09T03:34:09.370Z,19.50
2024-04-09T03:36:36.596Z,15.93
2024-04-09T03:39:05.885Z,17.27
2024-04-09T03:41:33.254Z,15.73
2024-04-09T03:44:02.581Z,21.70
2024-04-09T03:46:29.734Z,24.55
2024-04-09T03:48:57.083Z,29.42
2024-04-09T03:51:24.402Z,18.80
2024-04-09T03:53:51.656Z,18.00
2024-04-09T03:56:18.845Z,13.10
2024-04-09T03:58:50.815Z,14.40
2024-04-09T04:01:18.007Z,13.80
2024-04-09T04:03:49.948Z,12.65
2024-04-09T04:06:17.466Z,12.80
2024-04-09T04:08:45.518Z,16.02
2024-04-09T04:11:14.241Z,12.90
2024-04-09T04:13:42.421Z,16.48
2024-04-09T04:16:14.947Z,13.43
2024-04-09T04:18:47.367Z,13.48
2024-04-09T04:21:19.934Z,12.20
2024-04-09T04:23:48.754Z,15.27
2024-04-09T04:26:23.244Z,14.27
2024-04-09T04:28:51.430Z,13.90
2024-04-09T04:31:20.757Z,14.95
2024-04-09T04:33:49.776Z,16.90
2024-04-09T04:36:17.887Z,20.08
2024-04-09T04:38:46.199Z,20.33
2024-04-09T04:41:13.642Z,20.38
2024-04-09T04:43:41.797Z,21.17
2024-04-09T04:46:09.354Z,23.20
2024-04-09T04:48:37.120Z,22.55
2024-04-09T04:51:05.288Z,23.95
2024-04-09T04:53:32.567Z,32.83
2024-04-09T04:56:00.044Z,37.75
2024-04-09T04:58:27.800Z,28.70
2024-04-09T05:00:55.576Z,26.92
2024-04-09T05:03:22.964Z,20.25
2024-04-09T05:05:50.411Z,19.83
2024-04-09T05:08:18.659Z,23.45
2024-04-09T05:10:46.059Z,24.63
2024-04-09T05:13:13.175Z,25.95
2024-04-09T05:15:40.330Z,23.67
2024-04-09T05:18:09.633Z,21.98
2024-04-09T05:20:37.886Z,29.65
2024-04-09T05:23:05.567Z,23.63
2024-04-09T05:25:35.235Z,25.85
2024-04-09T05:28:02.658Z,23.15
2024-04-09T05:30:30.475Z,29.65
2024-04-09T05:32:58.124Z,24.88
2024-04-09T05:35:27.653Z,22.25
2024-04-09T05:37:55.325Z,27.65
2024-04-09T05:40:22.475Z,24.33
2024-04-09T05:42:50.147Z,25.27
2024-04-09T05:45:20.922Z,29.77
2024-04-09T05:47:48.755Z,30.48
2024-04-09T05:50:16.238Z,33.33
2024-04-09T05:52:43.536Z,29.50
2024-04-09T05:55:13.294Z,38.58
2024-04-09T05:57:41.995Z,39.70
2024-04-09T06:00:16.652Z,40.67
2024-04-09T06:02:47.496Z,34.78
2024-04-09T06:05:18.881Z,39.95
2024-04-09T06:07:50.011Z,33.58
2024-04-09T06:10:19.513Z,32.63
2024-04-09T06:12:46.756Z,41.22
2024-04-09T06:15:14.143Z,40.78
2024-04-09T06:17:41.587Z,47.97
2024-04-09T06:20:09.566Z,47.38
2024-04-09T06:22:37.039Z,44.30
2024-04-09T06:25:04.668Z,42.00
2024-04-09T06:27:32.121Z,49.65
2024-04-09T06:29:59.550Z,41.58
2024-04-09T06:32:28.887Z,44.38
2024-04-09T06:34:56.063Z,54.30
2024-04-09T06:37:23.315Z,48.00
2024-04-09T06:39:50.716Z,46.63
2024-04-09T06:42:17.982Z,45.03
2024-04-09T06:44:45.243Z,43.60
2024-04-09T06:47:12.355Z,45.97
2024-04-09T06:49:39.733Z,46.05
2024-04-09T06:52:07.001Z,106.32
2024-04-09T06:54:34.452Z,76.28
2024-04-09T06:57:01.657Z,134.60
2024-04-09T06:59:28.853Z,116.72
2024-04-09T07:01:56.068Z,87.72
2024-04-09T07:04:23.449Z,90.07
2024-04-09T07:06:51.449Z,60.17
2024-04-09T07:09:21.754Z,55.65
2024-04-09T07:11:48.954Z,43.97
2024-04-09T07:14:16.536Z,43.25
2024-04-09T07:16:48.113Z,45.30
2024-04-09T07:19:15.623Z,47.55
2024-04-09T07:21:42.994Z,50.22
2024-04-09T07:24:11.105Z,48.88
2024-04-09T07:26:38.470Z,44.92
2024-04-09T07:29:05.946Z,43.33
2024-04-09T07:31:33.515Z,44.28
2024-04-09T07:34:01.124Z,44.15
2024-04-09T07:36:28.583Z,47.65
2024-04-09T07:38:57.271Z,43.80
2024-04-09T07:41:24.923Z,47.45
2024-04-09T07:43:52.305Z,45.38
2024-04-09T07:46:20.844Z,44.88
2024-04-09T07:48:48.475Z,44.88
2024-04-09T07:51:16.068Z,42.45
2024-04-09T07:53:43.379Z,42.63
2024-04-09T07:56:12.866Z,47.95
2024-04-09T07:58:40.245Z,38.22
2024-04-09T08:01:08.536Z,41.97
2024-04-09T08:03:36.396Z,36.97
2024-04-09T08:06:05.618Z,37.55
2024-04-09T08:08:38.327Z,39.80
2024-04-09T08:11:11.927Z,36.92
2024-04-09T08:13:39.546Z,30.80
2024-04-09T08:16:07.616Z,33.30
2024-04-09T08:18:35.158Z,40.85
2024-04-09T08:21:02.538Z,39.80
2024-04-09T08:23:30.750Z,40.97
2024-04-09T08:25:59.366Z,37.72
2024-04-09T08:28:26.414Z,37.33
2024-04-09T08:30:53.670Z,36.78
2024-04-09T08:33:21.750Z,31.58
2024-04-09T08:35:50.103Z,30.83
2024-04-09T08:38:23.877Z,35.00
2024-04-09T08:40:51.062Z,38.20
2024-04-09T08:43:19.463Z,30.95
2024-04-09T08:45:47.756Z,31.88
2024-04-09T08:48:18.323Z,32.70
2024-04-09T08:50:54.237Z,32.75
2024-04-09T08:53:25.133Z,30.52
2024-04-09T08:55:53.876Z,26.90
2024-04-09T08:58:21.548Z,22.83
2024-04-09T09:00:49.003Z,22.27
2024-04-09T09:03:16.863Z,23.48
2024-04-09T09:05:44.435Z,20.80
2024-04-09T09:08:11.484Z,21.80
2024-04-09T09:10:39.547Z,23.85
2024-04-09T09:13:07.088Z,22.13
2024-04-09T09:15:35.098Z,22.08
2024-04-09T09:18:02.911Z,21.60
2024-04-09T09:20:30.766Z,22.75
2024-04-09T09:22:57.965Z,20.38
2024-04-09T09:25:27.600Z,25.35
2024-04-09T09:28:10.970Z,20.90
2024-04-09T09:30:47.466Z,28.60
2024-04-09T09:33:23.984Z,20.92
2024-04-09T09:35:52.103Z,22.52
2024-04-09T09:38:20.806Z,19.27
2024-04-09T09:40:52.788Z,21.85
2024-04-09T09:43:24.037Z,25.23
2024-04-09T09:48:23.054Z,21.80
2024-04-09T09:50:50.601Z,21.65
2024-04-09T09:53:21.433Z,27.13
2024-04-09T09:55:52.783Z,20.45
2024-04-09T09:58:26.923Z,16.92
2024-04-09T10:00:54.628Z,22.38
2024-04-09T10:03:22.651Z,20.27
2024-04-09T10:05:50.658Z,20.95
2024-04-09T10:08:21.660Z,19.33
2024-04-09T10:10:52.964Z,17.90
2024-04-09T10:15:56.205Z,24.60
2024-04-09T10:18:32.405Z,19.08
2024-04-09T10:20:59.891Z,18.15
2024-04-09T10:23:27.387Z,20.27
2024-04-09T10:25:58.317Z,20.92
2024-04-09T10:28:34.067Z,21.17
2024-04-09T10:31:15.008Z,22.83
2024-04-09T10:33:42.871Z,22.30
2024-04-09T10:36:15.763Z,22.48
2024-04-09T10:38:44.325Z,18.48
2024-04-09T10:41:13.533Z,19.83
2024-04-09T10:43:41.149Z,16.33
2024-04-09T10:46:13.966Z,21.98
2024-04-09T10:48:44.097Z,17.73
2024-04-09T10:51:12.691Z,20.35
2024-04-09T10:53:40.219Z,17.75
2024-04-09T10:56:08.975Z,16.52
2024-04-09T10:58:40.619Z,14.98
2024-04-09T11:01:14.909Z,18.90
2024-04-09T11:03:42.955Z,20.10
2024-04-09T11:06:16.962Z,13.73
2024-04-09T11:08:46.350Z,17.38
2024-04-09T11:11:13.926Z,17.38
2024-04-09T11:13:42.127Z,17.23
2024-04-09T11:16:18.715Z,17.85
2024-04-09T11:18:59.452Z,15.15
2024-04-09T11:21:30.031Z,16.88
2024-04-09T11:23:57.656Z,15.88
2024-04-09T11:26:27.117Z,19.15
2024-04-09T11:28:54.318Z,20.08
2024-04-09T11:31:22.938Z,16.92
2024-04-09T11:33:53.596Z,19.42
2024-04-09T11:36:29.938Z,16.02
2024-04-09T11:38:59.650Z,14.05
2024-04-09T11:41:26.846Z,13.50
2024-04-09T11:44:01.462Z,17.85
2024-04-09T11:46:28.634Z,16.10
2024-04-09T11:49:01.615Z,20.42
2024-04-09T11:51:30.590Z,19.27
2024-04-09T11:53:57.764Z,14.55
2024-04-09T11:56:24.881Z,14.32
2024-04-09T11:58:51.944Z,12.38
2024-04-09T12:01:19.294Z,17.50
2024-04-09T12:03:46.627Z,12.52
2024-04-09T12:06:14.197Z,11.13
2024-04-09T12:08:41.546Z,18.52
2024-04-09T12:11:09.961Z,14.50
2024-04-09T12:13:37.587Z,11.55
2024-04-09T12:16:04.962Z,14.70
2024-04-09T12:18:33.300Z,12.95
2024-04-09T12:21:00.614Z,9.82
2024-04-09T12:23:27.990Z,10.45
2024-04-09T12:25:55.504Z,12.55
2024-04-09T12:28:22.705Z,12.30
2024-04-09T12:30:50.236Z,11.45
2024-04-09T12:33:20.876Z,13.15
2024-04-09T12:35:48.144Z,13.65
2024-04-09T12:38:15.819Z,14.27
2024-04-09T12:40:42.929Z,10.25
2024-04-09T12:43:10.003Z,11.23
2024-04-09T12:45:37.293Z,10.45
2024-04-09T12:48:05.026Z,13.98
2024-04-09T12:50:32.597Z,12.60
2024-04-09T12:52:59.792Z,9.95
2024-04-09T12:55:26.858Z,17.88
2024-04-09T12:57:54.050Z,8.32
2024-04-09T13:00:40.364Z,10.32
2024-04-09T13:03:09.990Z,12.13
2024-04-09T13:05:37.804Z,10.93
2024-04-09T13:08:07.842Z,9.27
2024-04-09T13:10:35.463Z,6.13
2024-04-09T13:13:02.652Z,11.20
2024-04-09T13:18:00.317Z,6.88
2024-04-09T13:20:27.717Z,12.25
2024-04-09T13:22:55.230Z,9.23
2024-04-09T13:25:22.456Z,6.40
2024-04-09T13:27:49.528Z,8.60
2024-04-09T13:30:16.615Z,8.20
2024-04-09T13:32:44.240Z,8.65
2024-04-09T13:35:11.567Z,11.90
2024-04-09T13:37:42.519Z,5.88
2024-04-09T13:40:13.402Z,4.63
2024-04-09T13:42:49.506Z,8.45
2024-04-09T13:45:16.997Z,8.45
2024-04-09T13:47:47.576Z,7.72
2024-04-09T13:50:18.393Z,8.73
2024-04-09T13:52:46.831Z,8.23
2024-04-09T13:55:14.268Z,10.05
2024-04-09T13:57:41.407Z,10.30
2024-04-09T14:00:10.199Z,7.22
2024-04-09T14:02:38.255Z,7.50
2024-04-09T14:05:06.728Z,8.80
2024-04-09T14:07:33.915Z,5.80
2024-04-09T14:10:01.149Z,6.25
2024-04-09T14:12:28.408Z,6.25
2024-04-09T14:14:56.084Z,7.32
2024-04-09T14:17:24.325Z,7.50
2024-04-09T14:19:55.203Z,5.15
2024-04-09T14:22:22.546Z,5.13
2024-04-09T14:24:49.703Z,6.93
2024-04-09T14:27:16.839Z,6.82
2024-04-09T14:29:44.294Z,12.60
2024-04-09T14:32:11.573Z,9.95
2024-04-09T14:34:38.729Z,6.95
2024-04-09T14:37:05.814Z,8.48
2024-04-09T14:39:32.855Z,10.70
2024-04-09T14:41:59.991Z,10.00
2024-04-09T14:44:27.398Z,9.27
2024-04-09T14:46:54.664Z,5.22
2024-04-09T14:49:21.842Z,6.80
2024-04-09T14:51:48.920Z,6.25
2024-04-09T14:54:16.023Z,7.70
2024-04-09T14:56:43.129Z,6.63
2024-04-09T14:59:10.358Z,8.30
2024-04-09T15:01:37.464Z,17.73
2024-04-09T15:04:04.750Z,7.82
2024-04-09T15:06:33.293Z,12.05
2024-04-09T15:09:00.457Z,6.28
2024-04-09T15:11:27.885Z,6.90
2024-04-09T15:13:55.231Z,8.10
2024-04-09T15:16:22.399Z,12.05
2024-04-09T15:18:49.563Z,11.02
2024-04-09T15:21:16.627Z,14.38
2024-04-09T15:23:45.597Z,9.63
2024-04-09T15:26:12.779Z,5.28
2024-04-09T15:28:40.071Z,7.70
2024-04-09T15:31:09.611Z,4.45
2024-04-09T15:33:37.279Z,10.13
2024-04-09T15:36:05.046Z,8.25
2024-04-09T15:38:32.604Z,7.07
2024-04-09T15:41:00.588Z,10.68
2024-04-09T15:43:28.672Z,8.05
2024-04-09T15:45:55.826Z,7.43
2024-04-09T15:48:24.130Z,13.75
2024-04-09T15:50:51.419Z,7.97
2024-04-09T15:53:18.560Z,7.03
2024-04-09T15:55:45.715Z,10.60
2024-04-09T15:58:12.907Z,9.63
2024-04-09T16:00:40.510Z,12.30
2024-04-09T16:03:07.952Z,7.60
2024-04-09T16:05:35.515Z,12.07
2024-04-09T16:08:02.855Z,8.27
2024-04-09T16:10:30.228Z,11.48
2024-04-09T16:12:57.290Z,7.82
2024-04-09T16:15:24.456Z,10.27
2024-04-09T16:17:52.551Z,11.63
2024-04-09T16:20:19.996Z,9.18
2024-04-09T16:22:47.196Z,9.25
2024-04-09T16:25:15.466Z,11.32
2024-04-09T16:27:42.622Z,8.55
2024-04-09T16:30:12.006Z,10.95
2024-04-09T16:32:41.613Z,11.45
2024-04-09T16:35:09.723Z,9.60
2024-04-09T16:37:38.251Z,7.93
2024-04-09T16:40:06.795Z,10.27
2024-04-09T16:42:34.131Z,8.55
2024-04-09T16:45:05.481Z,12.63
2024-04-09T16:47:32.921Z,6.35
2024-04-09T16:50:00.397Z,8.68
2024-04-09T16:52:27.495Z,11.38
2024-04-09T16:54:54.628Z,10.20
2024-04-09T16:57:32.786Z,9.43
2024-04-09T17:00:05.730Z,12.77
2024-04-09T17:02:32.917Z,10.75
2024-04-09T17:05:00.292Z,15.88
2024-04-09T17:07:27.566Z,11.23
2024-04-09T17:09:54.660Z,9.30
2024-04-09T17:12:22.076Z,10.45
2024-04-09T17:14:52.502Z,12.07
2024-04-09T17:17:20.256Z,14.73
2024-04-09T17:19:48.187Z,11.95
2024-04-09T17:22:16.171Z,9.27
2024-04-09T17:24:45.489Z,11.48
2024-04-09T17:27:12.622Z,10.93
2024-04-09T17:29:40.010Z,14.07
2024-04-09T17:32:07.600Z,14.45
2024-04-09T17:34:34.897Z,14.73
2024-04-09T17:37:02.122Z,12.13
2024-04-09T17:39:29.225Z,12.18
2024-04-09T17:41:56.913Z,17.20
2024-04-09T17:44:24.173Z,12.30
2024-04-09T17:46:51.328Z,16.10
2024-04-09T17:49:20.166Z,11.55
2024-04-09T17:51:47.592Z,16.63
2024-04-09T17:54:14.702Z,11.48
2024-04-09T17:56:41.761Z,12.40
2024-04-09T17:59:09.446Z,14.50
2024-04-09T18:01:39.657Z,15.18
2024-04-09T18:04:09.494Z,15.38
2024-04-09T18:06:36.732Z,18.20
2024-04-09T18:09:06.026Z,71.65
2024-04-09T18:11:33.651Z,112.85
2024-04-09T18:14:01.977Z,40.17
2024-04-09T18:16:29.290Z,17.35
2024-04-09T18:18:56.462Z,20.45
2024-04-09T18:21:24.784Z,16.10
2024-04-09T18:23:51.870Z,19.52
2024-04-09T18:26:21.546Z,17.35
2024-04-09T18:28:49.586Z,15.63
2024-04-09T18:31:16.884Z,20.77
2024-04-09T18:33:46.024Z,20.70
2024-04-09T18:36:14.098Z,14.18
2024-04-09T18:38:41.433Z,17.70
2024-04-09T18:41:10.426Z,21.88
2024-04-09T18:43:38.580Z,15.50
2024-04-09T18:46:05.947Z,15.98
2024-04-09T18:48:33.529Z,14.30
2024-04-09T18:51:03.588Z,12.48
2024-04-09T18:53:34.406Z,14.32
2024-04-09T18:56:02.089Z,15.38
2024-04-09T18:58:30.417Z,13.23
2024-04-09T19:00:57.636Z,14.90
2024-04-09T19:03:25.058Z,13.75
2024-04-09T19:05:53.092Z,12.77
2024-04-09T19:08:20.422Z,14.45
2024-04-09T19:10:47.604Z,9.45
2024-04-09T19:13:14.881Z,16.75
2024-04-09T19:15:42.112Z,13.20
2024-04-09T19:18:09.482Z,17.00
2024-04-09T19:20:36.954Z,12.50
2024-04-09T19:23:04.338Z,10.65
2024-04-09T19:25:31.491Z,10.48
2024-04-09T19:27:58.603Z,11.05
2024-04-09T19:30:26.350Z,9.77
2024-04-09T19:32:53.592Z,15.30
2024-04-09T19:35:20.899Z,10.05
2024-04-09T19:37:48.218Z,13.55
2024-04-09T19:40:15.937Z,10.88
2024-04-09T19:42:43.230Z,10.70
2024-04-09T19:45:10.381Z,11.38
2024-04-09T19:47:37.828Z,12.02
2024-04-09T19:50:05.786Z,8.55
2024-04-09T19:52:34.380Z,12.23
2024-04-09T19:55:01.472Z,13.93
2024-04-09T19:57:30.255Z,13.88
2024-04-09T19:59:58.527Z,10.45
2024-04-09T20:02:27.157Z,9.50
2024-04-09T20:04:55.172Z,10.90
2024-04-09T20:07:24.040Z,14.45
2024-04-09T20:09:51.207Z,16.27
2024-04-09T20:12:21.743Z,16.80
2024-04-09T20:14:49.600Z,13.70
2024-04-09T20:17:17.667Z,11.60
2024-04-09T20:19:45.813Z,11.75
2024-04-09T20:22:13.082Z,15.70
2024-04-09T20:24:41.180Z,12.52
2024-04-09T20:27:08.385Z,21.30
2024-04-09T20:29:35.623Z,17.00
2024-04-09T20:32:03.984Z,14.90
2024-04-09T20:34:31.383Z,12.77
2024-04-09T20:36:59.348Z,16.08
2024-04-09T20:39:26.642Z,16.30
2024-04-09T20:41:54.580Z,14.18
2024-04-09T20:44:22.079Z,15.82
2024-04-09T20:46:50.033Z,13.65
2024-04-09T20:49:17.498Z,16.02
2024-04-09T20:51:44.840Z,15.25
2024-04-09T20:54:11.985Z,16.92
2024-04-09T20:56:39.221Z,14.23
2024-04-09T20:59:06.458Z,13.95
2024-04-09T21:01:35.395Z,15.23
2024-04-09T21:04:03.752Z,18.70
2024-04-09T21:06:30.940Z,16.70
2024-04-09T21:08:58.075Z,18.27
2024-04-09T21:11:25.193Z,19.67
2024-04-09T21:13:52.490Z,13.05
2024-04-09T21:16:20.094Z,14.90
2024-04-09T21:18:47.663Z,20.25
2024-04-09T21:21:15.948Z,19.42
2024-04-09T21:23:43.110Z,20.13
2024-04-09T21:26:10.883Z,21.33
2024-04-09T21:28:38.758Z,21.05
2024-04-09T21:31:06.065Z,17.92
2024-04-09T21:33:33.394Z,15.27
2024-04-09T21:36:00.636Z,18.50
2024-04-09T21:38:27.984Z,12.85
2024-04-09T21:41:08.266Z,14.82
2024-04-09T21:43:35.381Z,17.98
2024-04-09T21:46:02.454Z,19.50
2024-04-09T21:48:29.708Z,17.20
2024-04-09T21:50:57.477Z,15.95
2024-04-09T21:53:25.910Z,14.82
2024-04-09T21:55:53.400Z,18.65
2024-04-09T21:58:20.474Z,13.20
2024-04-09T22:00:54.880Z,16.40
2024-04-09T22:03:23.618Z,14.23
2024-04-09T22:05:51.106Z,14.90
2024-04-09T22:08:18.657Z,15.30
2024-04-09T22:10:46.883Z,14.13
2024-04-09T22:13:14.051Z,14.93
2024-04-09T22:15:41.391Z,13.20
2024-04-09T22:18:08.711Z,13.75
2024-04-09T22:20:42.972Z,14.07
2024-04-09T22:23:15.856Z,10.60
2024-04-09T22:25:43.675Z,12.13
2024-04-09T22:28:11.562Z,16.13
2024-04-09T22:30:39.694Z,16.92
2024-04-09T22:33:10.213Z,17.25
2024-04-09T22:35:37.811Z,14.07
2024-04-09T22:38:05.206Z,15.77
2024-04-09T22:40:33.230Z,12.38
2024-04-09T22:43:00.476Z,9.50
2024-04-09T22:45:28.200Z,14.02
2024-04-09T22:47:55.450Z,15.15
2024-04-09T22:50:22.776Z,13.88
2024-04-09T22:52:50.042Z,12.73
2024-04-09T22:55:17.618Z,14.13
2024-04-09T22:57:44.733Z,13.40
2024-04-09T23:00:13.489Z,9.43
2024-04-09T23:02:41.770Z,11.32
2024-04-09T23:05:11.573Z,12.15
2024-04-09T23:07:38.950Z,10.77
2024-04-09T23:10:06.646Z,11.95
2024-04-09T23:12:34.658Z,11.88
2024-04-09T23:15:01.782Z,12.95
2024-04-09T23:17:29.398Z,11.82
2024-04-09T23:19:56.788Z,19.35
2024-04-09T23:22:24.570Z,11.13
2024-04-09T23:24:51.678Z,10.38
2024-04-09T23:27:18.842Z,12.57
2024-04-09T23:29:45.972Z,15.07
2024-04-09T23:32:13.073Z,13.25
2024-04-09T23:34:40.187Z,12.98
2024-04-09T23:37:07.904Z,11.60
2024-04-09T23:39:34.983Z,9.43
2024-04-09T23:42:05.503Z,13.98
2024-04-09T23:44:34.075Z,11.20
2024-04-09T23:47:02.696Z,11.20
2024-04-09T23:49:31.075Z,10.48
2024-04-09T23:51:58.236Z,8.73
2024-04-09T23:54:25.614Z,11.27
2024-04-09T23:56:53.117Z,12.40
2024-04-09T23:59:20.468Z,12.00
